sensor_id;sensor_type;location;lat;lon;timestamp;temperature;humidity
22779;DHT22;11556;51.194;3.800;2022-09-09T00:04:26;16.60;99.90
22779;DHT22;11556;51.194;3.800;2022-09-09T00:09:20;16.50;99.90
22779;DHT22;11556;51.194;3.800;2022-09-09T00:11:54;16.60;99.90
22779;DHT22;11556;51.194;3.800;2022-09-09T00:17:22;16.60;99.90
22779;DHT22;11556;51.194;3.800;2022-09-09T00:22:18;16.50;99.90
22779;DHT22;11556;51.194;3.800;2022-09-09T00:24:47;16.60;99.90
22779;DHT22;11556;51.194;3.800;2022-09-09T00:32:41;16.60;99.90
22779;DHT22;11556;51.194;3.800;2022-09-09T00:37:45;16.60;99.90
22779;DHT22;11556;51.194;3.800;2022-09-09T00:40:33;16.60;99.90
22779;DHT22;11556;51.194;3.800;2022-09-09T00:45:41;16.50;99.90
22779;DHT22;11556;51.194;3.800;2022-09-09T00:48:11;16.60;99.90
22779;DHT22;11556;51.194;3.800;2022-09-09T00:56:14;16.40;99.90
22779;DHT22;11556;51.194;3.800;2022-09-09T00:58:42;16.30;99.90
22779;DHT22;11556;51.194;3.800;2022-09-09T01:01:12;16.40;99.90
22779;DHT22;11556;51.194;3.800;2022-09-09T01:03:54;16.50;99.90
22779;DHT22;11556;51.194;3.800;2022-09-09T01:09:24;16.40;99.90
22779;DHT22;11556;51.194;3.800;2022-09-09T01:12:24;16.40;99.90
22779;DHT22;11556;51.194;3.800;2022-09-09T01:15:09;16.40;99.90
22779;DHT22;11556;51.194;3.800;2022-09-09T01:17:44;16.40;99.90
22779;DHT22;11556;51.194;3.800;2022-09-09T01:20:23;16.40;99.90
22779;DHT22;11556;51.194;3.800;2022-09-09T01:28:34;16.30;99.90
22779;DHT22;11556;51.194;3.800;2022-09-09T01:31:04;16.30;99.90
22779;DHT22;11556;51.194;3.800;2022-09-09T01:33:31;16.30;99.90
22779;DHT22;11556;51.194;3.800;2022-09-09T01:38:23;16.30;99.90
22779;DHT22;11556;51.194;3.800;2022-09-09T01:40:51;16.20;99.90
22779;DHT22;11556;51.194;3.800;2022-09-09T01:43:19;16.10;99.90
22779;DHT22;11556;51.194;3.800;2022-09-09T01:45:46;16.10;99.90
22779;DHT22;11556;51.194;3.800;2022-09-09T01:48:13;16.20;99.90
22779;DHT22;11556;51.194;3.800;2022-09-09T01:50:39;16.20;99.90
22779;DHT22;11556;51.194;3.800;2022-09-09T01:53:05;16.10;99.90
22779;DHT22;11556;51.194;3.800;2022-09-09T01:55:38;16.10;99.90
22779;DHT22;11556;51.194;3.800;2022-09-09T02:01:00;16.10;99.90
22779;DHT22;11556;51.194;3.800;2022-09-09T02:03:28;16.20;99.90
22779;DHT22;11556;51.194;3.800;2022-09-09T02:06:27;16.20;99.90
22779;DHT22;11556;51.194;3.800;2022-09-09T02:08:56;16.20;99.90
22779;DHT22;11556;51.194;3.800;2022-09-09T02:11:24;16.20;99.90
22779;DHT22;11556;51.194;3.800;2022-09-09T02:13:57;16.20;99.90
22779;DHT22;11556;51.194;3.800;2022-09-09T02:16:40;16.20;99.90
22779;DHT22;11556;51.194;3.800;2022-09-09T02:19:19;16.10;99.90
22779;DHT22;11556;51.194;3.800;2022-09-09T02:21:49;16.20;99.90
22779;DHT22;11556;51.194;3.800;2022-09-09T02:24:16;16.10;99.90
22779;DHT22;11556;51.194;3.800;2022-09-09T02:26:43;16.10;99.90
22779;DHT22;11556;51.194;3.800;2022-09-09T02:29:16;16.10;99.90
22779;DHT22;11556;51.194;3.800;2022-09-09T02:31:45;16.10;99.90
22779;DHT22;11556;51.194;3.800;2022-09-09T02:34:13;16.00;99.90
22779;DHT22;11556;51.194;3.800;2022-09-09T02:36:40;16.10;99.90
22779;DHT22;11556;51.194;3.800;2022-09-09T02:39:09;16.00;99.90
22779;DHT22;11556;51.194;3.800;2022-09-09T02:41:38;16.10;99.90
22779;DHT22;11556;51.194;3.800;2022-09-09T02:44:15;16.20;99.90
22779;DHT22;11556;51.194;3.800;2022-09-09T02:49:53;16.20;99.90
22779;DHT22;11556;51.194;3.800;2022-09-09T02:55:01;16.10;99.90
22779;DHT22;11556;51.194;3.800;2022-09-09T02:57:30;16.10;99.90
22779;DHT22;11556;51.194;3.800;2022-09-09T02:59:58;16.10;99.90
22779;DHT22;11556;51.194;3.800;2022-09-09T03:02:24;16.20;99.90
22779;DHT22;11556;51.194;3.800;2022-09-09T03:04:50;16.20;99.90
22779;DHT22;11556;51.194;3.800;2022-09-09T03:07:18;16.30;99.90
22779;DHT22;11556;51.194;3.800;2022-09-09T03:09:44;16.40;99.90
22779;DHT22;11556;51.194;3.800;2022-09-09T03:12:10;16.30;99.90
22779;DHT22;11556;51.194;3.800;2022-09-09T03:14:37;16.40;99.90
22779;DHT22;11556;51.194;3.800;2022-09-09T03:17:04;16.40;99.90
22779;DHT22;11556;51.194;3.800;2022-09-09T03:19:30;16.40;99.90
22779;DHT22;11556;51.194;3.800;2022-09-09T03:21:55;16.30;99.90
22779;DHT22;11556;51.194;3.800;2022-09-09T03:24:21;16.30;99.90
22779;DHT22;11556;51.194;3.800;2022-09-09T03:26:48;16.30;99.90
22779;DHT22;11556;51.194;3.800;2022-09-09T03:29:14;16.30;99.90
22779;DHT22;11556;51.194;3.800;2022-09-09T03:31:40;16.40;99.90
22779;DHT22;11556;51.194;3.800;2022-09-09T03:34:06;16.40;99.90
22779;DHT22;11556;51.194;3.800;2022-09-09T03:36:32;16.30;99.90
22779;DHT22;11556;51.194;3.800;2022-09-09T03:38:58;16.20;99.90
22779;DHT22;11556;51.194;3.800;2022-09-09T03:41:25;16.30;99.90
22779;DHT22;11556;51.194;3.800;2022-09-09T03:43:51;16.30;99.90
22779;DHT22;11556;51.194;3.800;2022-09-09T03:46:21;16.30;99.90
22779;DHT22;11556;51.194;3.800;2022-09-09T03:48:47;16.40;99.90
22779;DHT22;11556;51.194;3.800;2022-09-09T03:51:13;16.40;99.90
22779;DHT22;11556;51.194;3.800;2022-09-09T03:53:38;16.40;99.90
22779;DHT22;11556;51.194;3.800;2022-09-09T03:56:06;16.30;99.90
22779;DHT22;11556;51.194;3.800;2022-09-09T03:58:38;16.30;99.90
22779;DHT22;11556;51.194;3.800;2022-09-09T04:01:12;16.30;99.90
22779;DHT22;11556;51.194;3.800;2022-09-09T04:03:39;16.40;99.90
22779;DHT22;11556;51.194;3.800;2022-09-09T04:06:06;16.30;99.90
22779;DHT22;11556;51.194;3.800;2022-09-09T04:08:33;16.30;99.90
22779;DHT22;11556;51.194;3.800;2022-09-09T04:11:00;16.40;99.90
22779;DHT22;11556;51.194;3.800;2022-09-09T04:13:30;16.40;99.90
22779;DHT22;11556;51.194;3.800;2022-09-09T04:16:00;16.40;99.90
22779;DHT22;11556;51.194;3.800;2022-09-09T04:18:27;16.40;99.90
22779;DHT22;11556;51.194;3.800;2022-09-09T04:20:54;16.40;99.90
22779;DHT22;11556;51.194;3.800;2022-09-09T04:23:21;16.30;99.90
22779;DHT22;11556;51.194;3.800;2022-09-09T04:25:48;16.40;99.90
22779;DHT22;11556;51.194;3.800;2022-09-09T04:28:15;16.40;99.90
22779;DHT22;11556;51.194;3.800;2022-09-09T04:30:41;16.40;99.90
22779;DHT22;11556;51.194;3.800;2022-09-09T04:33:08;16.40;99.90
22779;DHT22;11556;51.194;3.800;2022-09-09T04:35:35;16.40;99.90
22779;DHT22;11556;51.194;3.800;2022-09-09T04:38:01;16.50;99.90
22779;DHT22;11556;51.194;3.800;2022-09-09T04:40:28;16.40;99.90
22779;DHT22;11556;51.194;3.800;2022-09-09T04:42:55;16.40;99.90
22779;DHT22;11556;51.194;3.800;2022-09-09T04:45:20;16.40;99.90
22779;DHT22;11556;51.194;3.800;2022-09-09T04:47:46;16.40;99.90
22779;DHT22;11556;51.194;3.800;2022-09-09T04:50:11;16.40;99.90
22779;DHT22;11556;51.194;3.800;2022-09-09T04:52:37;16.50;99.90
22779;DHT22;11556;51.194;3.800;2022-09-09T04:55:03;16.50;99.90
22779;DHT22;11556;51.194;3.800;2022-09-09T04:57:29;16.50;99.90
22779;DHT22;11556;51.194;3.800;2022-09-09T04:59:58;16.50;99.90
22779;DHT22;11556;51.194;3.800;2022-09-09T05:02:23;16.50;99.90
22779;DHT22;11556;51.194;3.800;2022-09-09T05:04:49;16.50;99.90
22779;DHT22;11556;51.194;3.800;2022-09-09T05:07:15;16.60;99.90
22779;DHT22;11556;51.194;3.800;2022-09-09T05:09:40;16.60;99.90
22779;DHT22;11556;51.194;3.800;2022-09-09T05:12:06;16.50;99.90
22779;DHT22;11556;51.194;3.800;2022-09-09T05:14:32;16.50;99.90
22779;DHT22;11556;51.194;3.800;2022-09-09T05:16:57;16.50;99.90
22779;DHT22;11556;51.194;3.800;2022-09-09T05:19:23;16.50;99.90
22779;DHT22;11556;51.194;3.800;2022-09-09T05:21:49;16.50;99.90
22779;DHT22;11556;51.194;3.800;2022-09-09T05:24:15;16.60;99.90
22779;DHT22;11556;51.194;3.800;2022-09-09T05:26:42;16.60;99.90
22779;DHT22;11556;51.194;3.800;2022-09-09T05:29:08;16.70;99.90
22779;DHT22;11556;51.194;3.800;2022-09-09T05:31:34;16.80;99.90
22779;DHT22;11556;51.194;3.800;2022-09-09T05:34:00;16.80;99.90
22779;DHT22;11556;51.194;3.800;2022-09-09T05:36:25;16.90;99.90
22779;DHT22;11556;51.194;3.800;2022-09-09T05:38:51;16.80;99.90
22779;DHT22;11556;51.194;3.800;2022-09-09T05:41:19;16.90;99.90
22779;DHT22;11556;51.194;3.800;2022-09-09T05:43:46;16.90;99.90
22779;DHT22;11556;51.194;3.800;2022-09-09T05:46:20;16.90;99.90
22779;DHT22;11556;51.194;3.800;2022-09-09T05:48:48;17.00;99.90
22779;DHT22;11556;51.194;3.800;2022-09-09T05:51:18;16.90;99.90
22779;DHT22;11556;51.194;3.800;2022-09-09T05:53:45;16.90;99.90
22779;DHT22;11556;51.194;3.800;2022-09-09T05:56:15;16.70;99.90
22779;DHT22;11556;51.194;3.800;2022-09-09T05:58:41;16.70;99.90
22779;DHT22;11556;51.194;3.800;2022-09-09T06:01:14;16.70;99.90
22779;DHT22;11556;51.194;3.800;2022-09-09T06:03:42;16.70;99.90
22779;DHT22;11556;51.194;3.800;2022-09-09T06:06:13;16.70;99.90
22779;DHT22;11556;51.194;3.800;2022-09-09T06:08:41;16.80;99.90
22779;DHT22;11556;51.194;3.800;2022-09-09T06:11:10;16.90;99.90
22779;DHT22;11556;51.194;3.800;2022-09-09T06:13:36;17.00;99.90
22779;DHT22;11556;51.194;3.800;2022-09-09T06:16:04;17.00;99.90
22779;DHT22;11556;51.194;3.800;2022-09-09T06:18:30;16.90;99.90
22779;DHT22;11556;51.194;3.800;2022-09-09T06:20:56;16.80;99.90
22779;DHT22;11556;51.194;3.800;2022-09-09T06:23:22;16.70;99.90
22779;DHT22;11556;51.194;3.800;2022-09-09T06:25:48;16.60;99.90
22779;DHT22;11556;51.194;3.800;2022-09-09T06:28:15;16.60;99.90
22779;DHT22;11556;51.194;3.800;2022-09-09T06:30:42;16.50;99.90
22779;DHT22;11556;51.194;3.800;2022-09-09T06:33:08;16.60;99.90
22779;DHT22;11556;51.194;3.800;2022-09-09T06:35:35;16.50;99.90
22779;DHT22;11556;51.194;3.800;2022-09-09T06:38:00;16.50;99.90
22779;DHT22;11556;51.194;3.800;2022-09-09T06:40:26;16.40;99.90
22779;DHT22;11556;51.194;3.800;2022-09-09T06:42:51;16.50;99.90
22779;DHT22;11556;51.194;3.800;2022-09-09T06:45:17;16.60;99.90
22779;DHT22;11556;51.194;3.800;2022-09-09T06:47:43;16.60;99.90
22779;DHT22;11556;51.194;3.800;2022-09-09T06:50:09;16.60;99.90
22779;DHT22;11556;51.194;3.800;2022-09-09T06:52:35;16.50;99.90
22779;DHT22;11556;51.194;3.800;2022-09-09T06:55:01;16.60;99.90
22779;DHT22;11556;51.194;3.800;2022-09-09T06:57:26;16.70;99.90
22779;DHT22;11556;51.194;3.800;2022-09-09T06:59:52;16.80;99.90
22779;DHT22;11556;51.194;3.800;2022-09-09T07:02:18;16.90;99.90
22779;DHT22;11556;51.194;3.800;2022-09-09T07:04:43;16.90;99.90
22779;DHT22;11556;51.194;3.800;2022-09-09T07:07:10;17.20;99.90
22779;DHT22;11556;51.194;3.800;2022-09-09T07:09:38;18.00;99.90
22779;DHT22;11556;51.194;3.800;2022-09-09T07:12:05;18.70;99.90
22779;DHT22;11556;51.194;3.800;2022-09-09T07:14:31;19.20;99.90
22779;DHT22;11556;51.194;3.800;2022-09-09T07:16:58;19.30;99.90
22779;DHT22;11556;51.194;3.800;2022-09-09T07:19:23;19.30;99.90
22779;DHT22;11556;51.194;3.800;2022-09-09T07:21:49;19.40;99.90
22779;DHT22;11556;51.194;3.800;2022-09-09T07:24:15;19.30;99.90
22779;DHT22;11556;51.194;3.800;2022-09-09T07:26:41;19.30;99.90
22779;DHT22;11556;51.194;3.800;2022-09-09T07:29:08;19.30;99.90
22779;DHT22;11556;51.194;3.800;2022-09-09T07:31:36;19.50;99.90
22779;DHT22;11556;51.194;3.800;2022-09-09T07:34:02;19.50;99.90
22779;DHT22;11556;51.194;3.800;2022-09-09T07:36:33;19.30;99.90
22779;DHT22;11556;51.194;3.800;2022-09-09T07:39:04;19.20;99.90
22779;DHT22;11556;51.194;3.800;2022-09-09T07:41:45;18.90;99.90
22779;DHT22;11556;51.194;3.800;2022-09-09T07:44:21;18.80;99.90
22779;DHT22;11556;51.194;3.800;2022-09-09T07:46:47;18.80;99.90
22779;DHT22;11556;51.194;3.800;2022-09-09T07:49:13;18.60;99.90
22779;DHT22;11556;51.194;3.800;2022-09-09T07:51:41;18.60;99.90
22779;DHT22;11556;51.194;3.800;2022-09-09T07:54:09;18.70;99.90
22779;DHT22;11556;51.194;3.800;2022-09-09T07:56:36;18.80;99.90
22779;DHT22;11556;51.194;3.800;2022-09-09T07:59:03;18.80;99.90
22779;DHT22;11556;51.194;3.800;2022-09-09T08:01:37;18.60;99.90
22779;DHT22;11556;51.194;3.800;2022-09-09T08:04:15;18.40;99.90
22779;DHT22;11556;51.194;3.800;2022-09-09T08:07:01;18.40;99.90
22779;DHT22;11556;51.194;3.800;2022-09-09T08:09:28;18.30;99.90
22779;DHT22;11556;51.194;3.800;2022-09-09T08:11:55;18.20;99.90
22779;DHT22;11556;51.194;3.800;2022-09-09T08:14:25;18.10;99.90
22779;DHT22;11556;51.194;3.800;2022-09-09T08:16:51;18.00;99.90
22779;DHT22;11556;51.194;3.800;2022-09-09T08:19:18;18.00;99.90
22779;DHT22;11556;51.194;3.800;2022-09-09T08:21:44;18.00;99.90
22779;DHT22;11556;51.194;3.800;2022-09-09T08:24:11;18.10;99.90
22779;DHT22;11556;51.194;3.800;2022-09-09T08:26:42;18.10;99.90
22779;DHT22;11556;51.194;3.800;2022-09-09T08:29:09;18.10;99.90
22779;DHT22;11556;51.194;3.800;2022-09-09T08:31:55;18.10;99.90
22779;DHT22;11556;51.194;3.800;2022-09-09T08:34:23;17.90;99.90
22779;DHT22;11556;51.194;3.800;2022-09-09T08:36:50;17.90;99.90
22779;DHT22;11556;51.194;3.800;2022-09-09T08:39:17;17.70;99.90
22779;DHT22;11556;51.194;3.800;2022-09-09T08:50:41;17.70;99.90
22779;DHT22;11556;51.194;3.800;2022-09-09T08:53:19;17.70;99.90
22779;DHT22;11556;51.194;3.800;2022-09-09T08:55:51;17.70;99.90
22779;DHT22;11556;51.194;3.800;2022-09-09T08:58:45;17.80;99.90
22779;DHT22;11556;51.194;3.800;2022-09-09T09:11:43;17.80;99.90
22779;DHT22;11556;51.194;3.800;2022-09-09T09:14:19;17.80;99.90
22779;DHT22;11556;51.194;3.800;2022-09-09T09:16:56;17.80;99.90
22779;DHT22;11556;51.194;3.800;2022-09-09T09:19:23;17.90;99.90
22779;DHT22;11556;51.194;3.800;2022-09-09T09:22:13;17.90;99.90
22779;DHT22;11556;51.194;3.800;2022-09-09T09:30:12;18.60;99.90
22779;DHT22;11556;51.194;3.800;2022-09-09T09:32:41;18.70;99.90
22779;DHT22;11556;51.194;3.800;2022-09-09T09:35:12;18.70;99.90
22779;DHT22;11556;51.194;3.800;2022-09-09T09:37:40;18.70;99.90
22779;DHT22;11556;51.194;3.800;2022-09-09T09:40:15;18.90;99.90
22779;DHT22;11556;51.194;3.800;2022-09-09T09:42:56;19.20;99.90
22779;DHT22;11556;51.194;3.800;2022-09-09T09:45:41;19.50;99.90
22779;DHT22;11556;51.194;3.800;2022-09-09T09:48:13;19.50;99.90
22779;DHT22;11556;51.194;3.800;2022-09-09T09:50:59;19.40;99.90
22779;DHT22;11556;51.194;3.800;2022-09-09T09:53:30;19.40;99.90
22779;DHT22;11556;51.194;3.800;2022-09-09T09:55:57;19.60;99.90
22779;DHT22;11556;51.194;3.800;2022-09-09T09:58:25;19.60;99.90
22779;DHT22;11556;51.194;3.800;2022-09-09T10:00:53;19.70;99.90
22779;DHT22;11556;51.194;3.800;2022-09-09T10:05:47;19.50;99.90
22779;DHT22;11556;51.194;3.800;2022-09-09T10:08:15;19.30;99.90
22779;DHT22;11556;51.194;3.800;2022-09-09T10:19:20;18.70;99.90
22779;DHT22;11556;51.194;3.800;2022-09-09T10:24:48;18.70;99.90
22779;DHT22;11556;51.194;3.800;2022-09-09T10:30:28;18.90;99.90
22779;DHT22;11556;51.194;3.800;2022-09-09T10:33:18;19.30;99.90
22779;DHT22;11556;51.194;3.800;2022-09-09T10:38:40;20.00;99.90
22779;DHT22;11556;51.194;3.800;2022-09-09T10:41:19;20.20;99.90
22779;DHT22;11556;51.194;3.800;2022-09-09T10:49:44;20.60;99.90
22779;DHT22;11556;51.194;3.800;2022-09-09T10:52:27;20.80;99.90
22779;DHT22;11556;51.194;3.800;2022-09-09T10:54:58;21.00;99.90
22779;DHT22;11556;51.194;3.800;2022-09-09T10:58:02;21.50;99.90
22779;DHT22;11556;51.194;3.800;2022-09-09T11:00:41;21.60;99.90
22779;DHT22;11556;51.194;3.800;2022-09-09T11:03:34;21.60;99.90
22779;DHT22;11556;51.194;3.800;2022-09-09T11:06:05;21.20;99.90
22779;DHT22;11556;51.194;3.800;2022-09-09T11:08:34;20.60;99.90
22779;DHT22;11556;51.194;3.800;2022-09-09T11:11:29;20.40;99.90
22779;DHT22;11556;51.194;3.800;2022-09-09T11:14:19;20.00;99.90
22779;DHT22;11556;51.194;3.800;2022-09-09T11:16:56;19.90;99.90
22779;DHT22;11556;51.194;3.800;2022-09-09T11:21:55;20.70;99.90
22779;DHT22;11556;51.194;3.800;2022-09-09T11:24:32;20.90;99.90
22779;DHT22;11556;51.194;3.800;2022-09-09T11:27:20;21.30;99.90
22779;DHT22;11556;51.194;3.800;2022-09-09T11:30:14;21.50;99.90
22779;DHT22;11556;51.194;3.800;2022-09-09T11:38:26;21.20;99.90
22779;DHT22;11556;51.194;3.800;2022-09-09T11:41:04;20.80;99.90
22779;DHT22;11556;51.194;3.800;2022-09-09T11:43:52;20.80;99.90
22779;DHT22;11556;51.194;3.800;2022-09-09T11:46:20;20.80;99.90
22779;DHT22;11556;51.194;3.800;2022-09-09T11:49:00;20.70;99.90
22779;DHT22;11556;51.194;3.800;2022-09-09T11:51:28;20.60;99.90
22779;DHT22;11556;51.194;3.800;2022-09-09T11:56:33;21.00;99.90
22779;DHT22;11556;51.194;3.800;2022-09-09T11:59:05;21.10;99.90
22779;DHT22;11556;51.194;3.800;2022-09-09T12:01:37;21.00;99.90
22779;DHT22;11556;51.194;3.800;2022-09-09T12:04:10;20.90;99.90
22779;DHT22;11556;51.194;3.800;2022-09-09T12:06:54;20.60;99.90
22779;DHT22;11556;51.194;3.800;2022-09-09T12:09:38;20.30;99.90
22779;DHT22;11556;51.194;3.800;2022-09-09T12:17:30;19.80;99.90
22779;DHT22;11556;51.194;3.800;2022-09-09T12:33:19;19.50;99.90
22779;DHT22;11556;51.194;3.800;2022-09-09T12:35:51;20.10;99.90
22779;DHT22;11556;51.194;3.800;2022-09-09T12:40:58;20.70;99.90
22779;DHT22;11556;51.194;3.800;2022-09-09T12:43:25;20.90;99.90
22779;DHT22;11556;51.194;3.800;2022-09-09T12:46:02;20.90;99.90
22779;DHT22;11556;51.194;3.800;2022-09-09T12:48:39;20.70;99.90
22779;DHT22;11556;51.194;3.800;2022-09-09T12:51:18;20.30;99.90
22779;DHT22;11556;51.194;3.800;2022-09-09T12:53:44;20.00;99.90
22779;DHT22;11556;51.194;3.800;2022-09-09T12:56:20;19.70;99.90
22779;DHT22;11556;51.194;3.800;2022-09-09T12:58:48;19.80;99.90
22779;DHT22;11556;51.194;3.800;2022-09-09T13:01:28;19.80;99.90
22779;DHT22;11556;51.194;3.800;2022-09-09T13:03:55;19.80;99.90
22779;DHT22;11556;51.194;3.800;2022-09-09T13:06:24;19.70;99.90
22779;DHT22;11556;51.194;3.800;2022-09-09T13:08:51;19.80;99.90
22779;DHT22;11556;51.194;3.800;2022-09-09T13:11:20;19.70;99.90
22779;DHT22;11556;51.194;3.800;2022-09-09T13:13:53;19.70;99.90
22779;DHT22;11556;51.194;3.800;2022-09-09T13:16:26;19.90;99.90
22779;DHT22;11556;51.194;3.800;2022-09-09T13:19:00;20.00;99.90
22779;DHT22;11556;51.194;3.800;2022-09-09T13:21:38;20.20;99.90
22779;DHT22;11556;51.194;3.800;2022-09-09T13:24:30;20.30;99.90
22779;DHT22;11556;51.194;3.800;2022-09-09T13:26:57;20.00;99.90
22779;DHT22;11556;51.194;3.800;2022-09-09T13:29:23;19.80;99.90
22779;DHT22;11556;51.194;3.800;2022-09-09T13:31:50;19.80;99.90
22779;DHT22;11556;51.194;3.800;2022-09-09T13:34:32;20.00;99.90
22779;DHT22;11556;51.194;3.800;2022-09-09T13:37:00;20.00;99.90
22779;DHT22;11556;51.194;3.800;2022-09-09T13:39:27;20.00;99.90
22779;DHT22;11556;51.194;3.800;2022-09-09T13:41:53;19.90;99.90
22779;DHT22;11556;51.194;3.800;2022-09-09T13:44:31;19.90;99.90
22779;DHT22;11556;51.194;3.800;2022-09-09T13:47:06;20.10;99.90
22779;DHT22;11556;51.194;3.800;2022-09-09T13:49:41;20.30;99.90
22779;DHT22;11556;51.194;3.800;2022-09-09T13:52:13;20.40;99.90
22779;DHT22;11556;51.194;3.800;2022-09-09T13:54:39;20.40;99.90
22779;DHT22;11556;51.194;3.800;2022-09-09T13:57:11;20.30;99.90
22779;DHT22;11556;51.194;3.800;2022-09-09T13:59:39;20.10;99.90
22779;DHT22;11556;51.194;3.800;2022-09-09T14:02:04;19.70;99.90
22779;DHT22;11556;51.194;3.800;2022-09-09T14:04:30;19.40;99.90
22779;DHT22;11556;51.194;3.800;2022-09-09T14:06:56;19.20;99.90
22779;DHT22;11556;51.194;3.800;2022-09-09T14:09:21;19.00;99.90
22779;DHT22;11556;51.194;3.800;2022-09-09T14:11:47;18.90;99.90
22779;DHT22;11556;51.194;3.800;2022-09-09T14:14:13;18.90;99.90
22779;DHT22;11556;51.194;3.800;2022-09-09T14:16:38;19.00;99.90
22779;DHT22;11556;51.194;3.800;2022-09-09T14:19:04;19.30;99.90
22779;DHT22;11556;51.194;3.800;2022-09-09T14:21:29;20.10;99.90
22779;DHT22;11556;51.194;3.800;2022-09-09T14:23:55;21.20;99.90
22779;DHT22;11556;51.194;3.800;2022-09-09T14:26:23;22.00;99.90
22779;DHT22;11556;51.194;3.800;2022-09-09T14:28:49;22.10;99.90
22779;DHT22;11556;51.194;3.800;2022-09-09T14:31:15;21.80;99.90
22779;DHT22;11556;51.194;3.800;2022-09-09T14:33:43;21.50;99.90
22779;DHT22;11556;51.194;3.800;2022-09-09T14:36:09;21.30;99.90
22779;DHT22;11556;51.194;3.800;2022-09-09T14:38:37;21.40;99.90
22779;DHT22;11556;51.194;3.800;2022-09-09T14:41:09;21.30;99.90
22779;DHT22;11556;51.194;3.800;2022-09-09T14:43:37;21.00;99.90
22779;DHT22;11556;51.194;3.800;2022-09-09T14:46:10;20.70;99.90
22779;DHT22;11556;51.194;3.800;2022-09-09T14:48:36;20.60;99.90
22779;DHT22;11556;51.194;3.800;2022-09-09T14:51:13;20.40;99.90
22779;DHT22;11556;51.194;3.800;2022-09-09T14:53:41;20.40;99.90
22779;DHT22;11556;51.194;3.800;2022-09-09T14:56:18;20.40;99.90
22779;DHT22;11556;51.194;3.800;2022-09-09T14:58:45;20.50;99.90
22779;DHT22;11556;51.194;3.800;2022-09-09T15:01:14;20.60;99.90
22779;DHT22;11556;51.194;3.800;2022-09-09T15:03:41;21.10;99.90
22779;DHT22;11556;51.194;3.800;2022-09-09T15:06:12;22.20;99.90
22779;DHT22;11556;51.194;3.800;2022-09-09T15:08:40;23.60;99.90
22779;DHT22;11556;51.194;3.800;2022-09-09T15:11:06;24.70;99.90
22779;DHT22;11556;51.194;3.800;2022-09-09T15:13:33;25.70;99.90
22779;DHT22;11556;51.194;3.800;2022-09-09T15:18:34;26.30;99.90
22779;DHT22;11556;51.194;3.800;2022-09-09T15:21:02;26.20;99.90
22779;DHT22;11556;51.194;3.800;2022-09-09T15:23:32;26.60;99.90
22779;DHT22;11556;51.194;3.800;2022-09-09T15:25:57;26.50;99.90
22779;DHT22;11556;51.194;3.800;2022-09-09T15:28:23;26.20;99.90
22779;DHT22;11556;51.194;3.800;2022-09-09T15:30:53;25.90;99.90
22779;DHT22;11556;51.194;3.800;2022-09-09T15:33:20;25.10;99.90
22779;DHT22;11556;51.194;3.800;2022-09-09T15:35:46;24.70;99.90
22779;DHT22;11556;51.194;3.800;2022-09-09T15:38:12;24.10;99.90
22779;DHT22;11556;51.194;3.800;2022-09-09T15:40:42;23.70;99.90
22779;DHT22;11556;51.194;3.800;2022-09-09T15:43:08;23.40;99.90
22779;DHT22;11556;51.194;3.800;2022-09-09T15:45:36;23.00;99.90
22779;DHT22;11556;51.194;3.800;2022-09-09T15:48:02;22.70;99.90
22779;DHT22;11556;51.194;3.800;2022-09-09T15:50:28;22.50;99.90
22779;DHT22;11556;51.194;3.800;2022-09-09T15:52:57;22.10;99.90
22779;DHT22;11556;51.194;3.800;2022-09-09T15:55:22;22.00;99.90
22779;DHT22;11556;51.194;3.800;2022-09-09T15:57:49;21.70;99.90
22779;DHT22;11556;51.194;3.800;2022-09-09T16:00:16;21.50;99.90
22779;DHT22;11556;51.194;3.800;2022-09-09T16:02:41;21.00;99.90
22779;DHT22;11556;51.194;3.800;2022-09-09T16:05:08;21.00;99.90
22779;DHT22;11556;51.194;3.800;2022-09-09T16:07:33;21.30;99.90
22779;DHT22;11556;51.194;3.800;2022-09-09T16:10:00;21.40;99.90
22779;DHT22;11556;51.194;3.800;2022-09-09T16:12:25;21.70;99.90
22779;DHT22;11556;51.194;3.800;2022-09-09T16:14:51;21.70;99.90
22779;DHT22;11556;51.194;3.800;2022-09-09T16:17:17;21.40;99.90
22779;DHT22;11556;51.194;3.800;2022-09-09T16:19:44;21.20;99.90
22779;DHT22;11556;51.194;3.800;2022-09-09T16:22:11;21.10;99.90
22779;DHT22;11556;51.194;3.800;2022-09-09T16:24:36;21.00;99.90
22779;DHT22;11556;51.194;3.800;2022-09-09T16:27:02;20.90;99.90
22779;DHT22;11556;51.194;3.800;2022-09-09T16:29:28;20.90;99.90
22779;DHT22;11556;51.194;3.800;2022-09-09T16:31:54;20.90;99.90
22779;DHT22;11556;51.194;3.800;2022-09-09T16:34:20;20.80;99.90
22779;DHT22;11556;51.194;3.800;2022-09-09T16:36:47;20.70;99.90
22779;DHT22;11556;51.194;3.800;2022-09-09T16:39:15;20.70;99.90
22779;DHT22;11556;51.194;3.800;2022-09-09T16:41:42;20.70;99.90
22779;DHT22;11556;51.194;3.800;2022-09-09T16:44:10;20.50;99.90
22779;DHT22;11556;51.194;3.800;2022-09-09T16:46:39;20.50;99.90
22779;DHT22;11556;51.194;3.800;2022-09-09T16:49:07;20.50;99.90
22779;DHT22;11556;51.194;3.800;2022-09-09T16:51:35;20.50;99.90
22779;DHT22;11556;51.194;3.800;2022-09-09T16:54:03;20.30;99.90
22779;DHT22;11556;51.194;3.800;2022-09-09T16:56:31;20.20;99.90
22779;DHT22;11556;51.194;3.800;2022-09-09T16:59:02;20.00;99.90
22779;DHT22;11556;51.194;3.800;2022-09-09T17:01:30;19.70;99.90
22779;DHT22;11556;51.194;3.800;2022-09-09T17:03:58;19.70;99.90
22779;DHT22;11556;51.194;3.800;2022-09-09T17:06:24;19.70;99.90
22779;DHT22;11556;51.194;3.800;2022-09-09T17:08:58;19.70;99.90
22779;DHT22;11556;51.194;3.800;2022-09-09T17:11:26;19.70;99.90
22779;DHT22;11556;51.194;3.800;2022-09-09T17:13:53;19.80;99.90
22779;DHT22;11556;51.194;3.800;2022-09-09T17:16:20;20.10;99.90
22779;DHT22;11556;51.194;3.800;2022-09-09T17:18:47;20.00;99.90
22779;DHT22;11556;51.194;3.800;2022-09-09T17:21:16;19.90;99.90
22779;DHT22;11556;51.194;3.800;2022-09-09T17:23:44;19.80;99.90
22779;DHT22;11556;51.194;3.800;2022-09-09T17:26:12;19.50;99.90
22779;DHT22;11556;51.194;3.800;2022-09-09T17:28:39;19.30;99.90
22779;DHT22;11556;51.194;3.800;2022-09-09T17:31:10;19.30;99.90
22779;DHT22;11556;51.194;3.800;2022-09-09T17:33:37;19.10;99.90
22779;DHT22;11556;51.194;3.800;2022-09-09T17:36:09;19.10;99.90
22779;DHT22;11556;51.194;3.800;2022-09-09T17:38:35;19.10;99.90
22779;DHT22;11556;51.194;3.800;2022-09-09T17:43:30;19.10;99.90
22779;DHT22;11556;51.194;3.800;2022-09-09T17:46:05;19.10;99.90
22779;DHT22;11556;51.194;3.800;2022-09-09T17:48:31;19.10;99.90
22779;DHT22;11556;51.194;3.800;2022-09-09T17:50:58;18.90;99.90
22779;DHT22;11556;51.194;3.800;2022-09-09T17:53:24;19.10;99.90
22779;DHT22;11556;51.194;3.800;2022-09-09T17:55:50;19.10;99.90
22779;DHT22;11556;51.194;3.800;2022-09-09T17:58:16;19.00;99.90
22779;DHT22;11556;51.194;3.800;2022-09-09T18:00:42;19.00;99.90